createdAt,value
2022-08-18T00:00:21.904Z,77.28
2022-08-18T00:01:11.196Z,77.28
2022-08-18T00:02:10.749Z,77.39
2022-08-18T00:04:03.307Z,77.41
2022-08-18T00:04:47.633Z,77.45
2022-08-18T00:05:13.034Z,77.45
2022-08-18T00:06:11.183Z,77.50
2022-08-18T00:07:10.704Z,77.47
2022-08-18T00:08:11.346Z,77.44
2022-08-18T00:09:10.789Z,77.47
2022-08-18T00:10:21.285Z,77.66
2022-08-18T00:11:10.593Z,77.66
2022-08-18T00:12:10.989Z,77.59
2022-08-18T00:13:10.374Z,77.56
2022-08-18T00:14:10.965Z,77.56
2022-08-18T00:15:11.277Z,77.53
2022-08-18T00:16:10.758Z,77.50
2022-08-18T00:17:11.258Z,77.53
2022-08-18T00:18:10.301Z,77.62
2022-08-18T00:19:12.920Z,77.62
2022-08-18T00:20:11.050Z,77.65
2022-08-18T00:21:10.373Z,77.68
2022-08-18T00:22:12.446Z,77.69
2022-08-18T00:23:10.374Z,77.69
2022-08-18T00:24:10.441Z,77.70
2022-08-18T00:25:10.744Z,77.69
2022-08-18T00:26:10.824Z,77.68
2022-08-18T00:27:10.766Z,77.71
2022-08-18T00:28:10.617Z,77.71
2022-08-18T00:29:10.516Z,77.69
2022-08-18T00:30:11.026Z,77.73
2022-08-18T00:31:10.261Z,77.72
2022-08-18T00:32:11.066Z,77.73
2022-08-18T00:33:10.190Z,78.02
2022-08-18T00:34:10.395Z,78.14
2022-08-18T00:35:10.287Z,78.18
2022-08-18T00:36:10.580Z,78.24
2022-08-18T00:37:10.675Z,78.23
2022-08-18T00:38:24.276Z,78.24
2022-08-18T00:39:10.459Z,78.22
2022-08-18T00:40:11.360Z,78.26
2022-08-18T00:41:10.995Z,78.33
2022-08-18T00:42:10.397Z,78.34
2022-08-18T00:43:10.569Z,78.36
2022-08-18T00:44:10.580Z,78.42
2022-08-18T00:45:11.441Z,78.47
2022-08-18T00:46:10.252Z,78.45
2022-08-18T00:47:10.335Z,78.52
2022-08-18T00:48:10.700Z,78.39
2022-08-18T00:49:10.206Z,78.29
2022-08-18T00:51:10.355Z,30
2022-08-18T00:52:10.597Z,0
2022-08-18T00:53:10.511Z,0
2022-08-18T00:54:10.515Z,0
2022-08-18T00:55:10.846Z,0
2022-08-18T00:56:11.498Z,0
2022-08-18T00:57:10.776Z,0
2022-08-18T00:58:10.903Z,0
2022-08-18T00:59:11.149Z,0
2022-08-18T01:00:11.707Z,0
2022-08-18T01:01:10.908Z,0
2022-08-18T01:02:11.181Z,0
2022-08-18T01:03:10.664Z,0
2022-08-18T01:04:10.443Z,0
2022-08-18T01:05:10.884Z,0
2022-08-18T01:06:11.523Z,0
2022-08-18T01:07:10.527Z,0
2022-08-18T01:08:10.765Z,0
2022-08-18T01:09:11.351Z,0
2022-08-18T01:10:10.481Z,0
2022-08-18T01:11:10.549Z,0
2022-08-18T01:12:49.961Z,0
2022-08-18T01:13:10.747Z,0
2022-08-18T01:14:10.695Z,0
2022-08-18T01:15:31.024Z,0
2022-08-18T01:16:10.665Z,0
2022-08-18T01:17:10.792Z,0
2022-08-18T01:18:10.843Z,0
2022-08-18T01:19:10.503Z,0
2022-08-18T01:20:10.787Z,0
2022-08-18T01:21:10.614Z,0
2022-08-18T01:22:10.970Z,0
2022-08-18T01:23:11.211Z,0
2022-08-18T01:24:10.396Z,0
2022-08-18T01:25:10.829Z,0
2022-08-18T01:26:11.071Z,0
2022-08-18T01:27:10.549Z,0
2022-08-18T01:28:10.704Z,0
2022-08-18T01:29:11.050Z,0
2022-08-18T01:30:11.283Z,0
2022-08-18T01:31:10.423Z,0
2022-08-18T01:32:10.886Z,0
2022-08-18T01:33:11.086Z,0
2022-08-18T01:34:10.184Z,0
2022-08-18T01:35:10.479Z,0
2022-08-18T01:36:11.010Z,0
2022-08-18T01:37:10.496Z,0
2022-08-18T01:38:10.833Z,0
2022-08-18T01:39:11.058Z,0
2022-08-18T01:41:32.306Z,0
2022-08-18T01:41:34.186Z,0
2022-08-18T01:42:10.684Z,0
2022-08-18T01:43:10.586Z,0
2022-08-18T01:44:10.633Z,0
2022-08-18T01:45:10.871Z,0
2022-08-18T01:46:10.906Z,0
2022-08-18T01:47:10.991Z,0
2022-08-18T01:48:10.087Z,0
2022-08-18T01:49:10.293Z,0
2022-08-18T01:50:10.245Z,0
2022-08-18T01:51:10.743Z,0
2022-08-18T01:52:10.911Z,0
2022-08-18T01:53:10.781Z,0
2022-08-18T01:54:11.054Z,0
2022-08-18T01:55:11.406Z,0
2022-08-18T01:56:10.864Z,0
2022-08-18T01:57:11.198Z,0
2022-08-18T01:58:10.341Z,0
2022-08-18T01:59:10.463Z,0
2022-08-18T02:00:15.845Z,0
2022-08-18T02:01:10.880Z,0
2022-08-18T02:02:18.437Z,0
2022-08-18T02:03:11.108Z,0
2022-08-18T02:04:37.626Z,0
2022-08-18T02:05:11.102Z,0
2022-08-18T02:06:11.509Z,0
2022-08-18T02:07:11.875Z,0
2022-08-18T02:08:11.209Z,0
2022-08-18T02:09:10.749Z,0
2022-08-18T02:10:16.540Z,0
2022-08-18T02:11:10.939Z,0
2022-08-18T02:12:10.894Z,0
2022-08-18T02:13:10.918Z,0
2022-08-18T02:14:10.801Z,0
2022-08-18T02:15:11.083Z,0
2022-08-18T02:16:10.661Z,0
2022-08-18T02:17:10.810Z,0
2022-08-18T02:18:10.717Z,0
2022-08-18T02:19:10.731Z,0
2022-08-18T02:20:10.863Z,0
2022-08-18T02:21:13.945Z,0
2022-08-18T02:22:10.794Z,0
2022-08-18T02:23:11.039Z,0
2022-08-18T02:24:10.670Z,0
2022-08-18T02:25:11.021Z,0
2022-08-18T02:26:10.168Z,0
2022-08-18T02:27:10.338Z,0
2022-08-18T02:28:10.682Z,0
2022-08-18T02:29:10.748Z,0
2022-08-18T02:30:10.887Z,0
2022-08-18T02:31:14.673Z,0
2022-08-18T02:32:10.597Z,0
2022-08-18T02:33:10.897Z,0
2022-08-18T02:34:10.828Z,0
2022-08-18T02:35:15.223Z,0
2022-08-18T02:36:10.509Z,0
2022-08-18T02:37:15.789Z,0
2022-08-18T02:38:10.759Z,0
2022-08-18T02:39:10.464Z,0
2022-08-18T02:40:11.249Z,0
2022-08-18T02:41:10.430Z,0
2022-08-18T02:42:10.492Z,0
2022-08-18T02:43:10.777Z,0
2022-08-18T02:44:10.581Z,0
2022-08-18T02:45:13.505Z,0
2022-08-18T02:46:10.533Z,0
2022-08-18T02:47:10.465Z,0
2022-08-18T02:48:10.922Z,0
2022-08-18T02:49:10.647Z,0
2022-08-18T02:50:14.523Z,0
2022-08-18T02:51:10.798Z,0
2022-08-18T02:52:10.712Z,0
2022-08-18T02:53:10.852Z,0
2022-08-18T02:54:11.214Z,0
2022-08-18T02:55:10.718Z,0
2022-08-18T02:56:41.200Z,0
2022-08-18T02:57:10.598Z,0
2022-08-18T02:58:10.448Z,0
2022-08-18T02:59:10.167Z,0
2022-08-18T03:00:12.919Z,0
2022-08-18T03:01:10.480Z,0
2022-08-18T03:02:10.706Z,0
2022-08-18T03:03:10.535Z,0
2022-08-18T03:04:10.481Z,0
2022-08-18T03:05:18.022Z,0
2022-08-18T03:06:10.135Z,0
2022-08-18T03:07:10.534Z,0
2022-08-18T03:08:10.424Z,0
2022-08-18T03:09:10.588Z,0
2022-08-18T03:10:37.714Z,0
2022-08-18T03:11:10.649Z,0
2022-08-18T03:12:10.454Z,0
2022-08-18T03:13:10.368Z,0
2022-08-18T03:14:15.106Z,0
2022-08-18T03:15:10.317Z,0
2022-08-18T03:16:10.532Z,0
2022-08-18T03:17:10.812Z,0
2022-08-18T03:18:10.757Z,0
2022-08-18T03:19:10.554Z,0
2022-08-18T03:20:12.402Z,0
2022-08-18T03:21:11.076Z,0
2022-08-18T03:22:32.296Z,0
2022-08-18T03:23:13.682Z,0
2022-08-18T03:24:18.097Z,0
2022-08-18T03:25:10.644Z,0
2022-08-18T03:26:10.494Z,0
2022-08-18T03:27:10.691Z,0
2022-08-18T03:28:11.002Z,0
2022-08-18T03:29:10.205Z,0
2022-08-18T03:30:15.025Z,0
2022-08-18T03:31:10.162Z,0
2022-08-18T03:32:10.363Z,0
2022-08-18T03:33:10.594Z,0
2022-08-18T03:34:10.937Z,0
2022-08-18T03:35:11.325Z,0
2022-08-18T03:36:10.669Z,0
2022-08-18T03:37:10.625Z,0
2022-08-18T03:38:10.729Z,0
2022-08-18T03:39:10.765Z,0
2022-08-18T03:40:11.272Z,0
2022-08-18T03:41:10.478Z,0
2022-08-18T03:42:10.447Z,0
2022-08-18T03:43:55.019Z,0
2022-08-18T03:44:09.860Z,0
2022-08-18T03:45:21.155Z,0
2022-08-18T03:46:09.989Z,0
2022-08-18T03:47:10.002Z,0
2022-08-18T03:48:09.930Z,0
2022-08-18T03:49:10.814Z,0
2022-08-18T03:50:17.270Z,0
2022-08-18T03:51:10.201Z,0
2022-08-18T03:52:10.191Z,0
2022-08-18T03:53:10.350Z,0
2022-08-18T03:54:10.341Z,0
2022-08-18T03:55:10.501Z,0
2022-08-18T03:56:10.807Z,0
2022-08-18T03:57:10.892Z,0
2022-08-18T03:58:11.144Z,0
2022-08-18T03:59:10.162Z,0
2022-08-18T04:00:11.574Z,0
2022-08-18T04:01:10.894Z,0
2022-08-18T04:02:11.085Z,0
2022-08-18T04:03:10.465Z,0
2022-08-18T04:04:11.001Z,0
2022-08-18T04:05:10.763Z,0
2022-08-18T04:06:15.870Z,0
2022-08-18T04:07:10.561Z,0
2022-08-18T04:08:10.974Z,0
2022-08-18T04:09:11.080Z,0
2022-08-18T04:10:22.722Z,0
2022-08-18T04:11:11.354Z,0
2022-08-18T04:12:10.726Z,0
2022-08-18T04:13:10.777Z,0
2022-08-18T04:14:11.094Z,0
2022-08-18T04:15:10.751Z,0
2022-08-18T04:16:10.823Z,0
2022-08-18T04:17:10.688Z,0
2022-08-18T04:18:12.111Z,0
2022-08-18T04:19:10.155Z,0
2022-08-18T04:20:10.496Z,0
2022-08-18T04:21:10.778Z,0
2022-08-18T04:22:10.863Z,0
2022-08-18T04:23:10.668Z,0
2022-08-18T04:24:10.975Z,0
2022-08-18T04:25:11.215Z,0
2022-08-18T04:26:10.268Z,0
2022-08-18T04:27:10.361Z,0
2022-08-18T04:28:10.393Z,0
2022-08-18T04:29:10.596Z,0
2022-08-18T04:30:11.198Z,0
2022-08-18T04:31:13.898Z,0
2022-08-18T04:32:11.156Z,0
2022-08-18T04:33:10.520Z,0
2022-08-18T04:34:10.796Z,0
2022-08-18T04:35:17.657Z,0
2022-08-18T04:36:11.167Z,0
2022-08-18T04:37:10.322Z,0
2022-08-18T04:38:10.366Z,0
2022-08-18T04:39:10.596Z,0
2022-08-18T04:40:11.365Z,0
2022-08-18T04:41:10.066Z,0
2022-08-18T04:42:10.240Z,0
2022-08-18T04:43:10.344Z,0
2022-08-18T04:44:10.656Z,0
2022-08-18T04:45:10.865Z,0
2022-08-18T04:46:10.996Z,0
2022-08-18T04:47:10.196Z,0
2022-08-18T04:48:10.603Z,0
2022-08-18T04:49:10.571Z,0
2022-08-18T04:50:10.629Z,0
2022-08-18T04:51:10.548Z,0
2022-08-18T04:52:44.408Z,0
2022-08-18T04:53:10.599Z,0
2022-08-18T04:54:10.634Z,0
2022-08-18T04:55:10.898Z,0
2022-08-18T04:56:10.991Z,0
2022-08-18T04:57:10.106Z,0
2022-08-18T04:58:10.243Z,0
2022-08-18T04:59:10.535Z,0
2022-08-18T05:00:11.983Z,0
2022-08-18T05:01:11.027Z,0
2022-08-18T05:02:16.273Z,0
2022-08-18T05:03:10.397Z,0
2022-08-18T05:04:10.330Z,0
2022-08-18T05:05:10.756Z,0
2022-08-18T05:06:10.810Z,0
2022-08-18T05:07:11.146Z,0
2022-08-18T05:08:10.175Z,0
2022-08-18T05:09:10.336Z,0
2022-08-18T05:10:10.755Z,0
2022-08-18T05:11:11.002Z,0
2022-08-18T05:12:10.562Z,0
2022-08-18T05:13:10.651Z,0
2022-08-18T05:14:10.844Z,0
2022-08-18T05:16:07.050Z,0
2022-08-18T05:17:10.945Z,0
2022-08-18T05:18:16.771Z,0
2022-08-18T05:19:13.001Z,0
2022-08-18T05:20:10.697Z,0
2022-08-18T05:21:14.873Z,0
2022-08-18T05:22:12.434Z,0
2022-08-18T05:23:10.707Z,0
2022-08-18T05:24:10.961Z,0
2022-08-18T05:25:10.928Z,0
2022-08-18T05:26:10.925Z,0
2022-08-18T05:27:11.185Z,0
2022-08-18T05:28:10.114Z,0
2022-08-18T05:29:23.173Z,0
2022-08-18T05:30:11.979Z,0
2022-08-18T05:31:17.440Z,0
2022-08-18T05:32:10.639Z,0
2022-08-18T05:33:11.080Z,0
2022-08-18T05:34:10.159Z,0
2022-08-18T05:35:11.814Z,0
2022-08-18T05:36:10.827Z,0
2022-08-18T05:37:11.793Z,0
2022-08-18T05:38:10.957Z,0
2022-08-18T05:39:11.897Z,0
2022-08-18T05:40:15.200Z,0
2022-08-18T05:41:13.996Z,0
2022-08-18T05:42:11.366Z,0
2022-08-18T05:43:10.465Z,0
2022-08-18T05:44:10.517Z,0
2022-08-18T05:45:11.021Z,0
2022-08-18T05:46:10.463Z,0
2022-08-18T05:47:10.796Z,0
2022-08-18T05:48:10.823Z,0
2022-08-18T05:49:10.899Z,0
2022-08-18T05:50:11.243Z,0
2022-08-18T05:51:10.277Z,0
2022-08-18T05:52:10.468Z,0
2022-08-18T05:53:17.814Z,0
2022-08-18T05:54:10.935Z,0
2022-08-18T05:55:11.202Z,0
2022-08-18T05:56:10.523Z,0
2022-08-18T05:57:11.092Z,0
2022-08-18T05:58:10.590Z,0
2022-08-18T05:59:10.645Z,0
2022-08-18T06:00:12.612Z,0
2022-08-18T06:01:11.213Z,0
2022-08-18T06:02:10.752Z,0
2022-08-18T06:03:10.771Z,0
2022-08-18T06:04:11.050Z,0
2022-08-18T06:05:10.769Z,0
2022-08-18T06:06:11.265Z,0
2022-08-18T06:07:10.745Z,0
2022-08-18T06:08:10.966Z,0
2022-08-18T06:09:11.162Z,0
2022-08-18T06:10:10.568Z,0
2022-08-18T06:11:26.062Z,0
2022-08-18T06:12:10.379Z,0
2022-08-18T06:13:10.552Z,0
2022-08-18T06:14:10.952Z,0
2022-08-18T06:15:11.633Z,0
2022-08-18T06:16:10.700Z,0
2022-08-18T06:17:10.667Z,0
2022-08-18T06:18:10.813Z,0
2022-08-18T06:19:10.858Z,0
2022-08-18T06:20:12.072Z,0
2022-08-18T06:21:10.384Z,0
2022-08-18T06:22:10.606Z,0
2022-08-18T06:23:10.673Z,0
2022-08-18T06:24:10.655Z,0
2022-08-18T06:25:10.780Z,0
2022-08-18T06:26:10.705Z,0
2022-08-18T06:27:10.954Z,0
2022-08-18T06:28:11.198Z,0
2022-08-18T06:29:10.555Z,0
2022-08-18T06:30:11.422Z,0
2022-08-18T06:31:10.458Z,0
2022-08-18T06:32:10.713Z,0
2022-08-18T06:33:10.846Z,0
2022-08-18T06:34:11.008Z,0
2022-08-18T06:35:10.398Z,0
2022-08-18T06:36:18.776Z,0
2022-08-18T06:37:10.586Z,0
2022-08-18T06:38:10.918Z,0
2022-08-18T06:39:11.382Z,0
2022-08-18T06:40:10.863Z,0
2022-08-18T06:41:40.720Z,0
2022-08-18T06:42:10.750Z,0
2022-08-18T06:43:11.160Z,0
2022-08-18T06:44:10.461Z,0
2022-08-18T06:45:11.345Z,0
2022-08-18T06:46:10.829Z,0
2022-08-18T06:47:10.970Z,0
2022-08-18T06:49:10.850Z,0
2022-08-18T06:50:11.262Z,0
2022-08-18T06:51:10.584Z,0
2022-08-18T06:52:10.669Z,0
2022-08-18T06:53:30.477Z,0
2022-08-18T06:54:10.783Z,0
2022-08-18T06:55:11.223Z,0
2022-08-18T06:56:30.041Z,0
2022-08-18T06:57:10.461Z,0
2022-08-18T06:58:10.516Z,0
2022-08-18T06:59:10.387Z,0
2022-08-18T07:00:11.845Z,0
2022-08-18T07:01:11.287Z,0
2022-08-18T07:02:11.195Z,0
2022-08-18T07:03:10.627Z,0
2022-08-18T07:04:11.168Z,0
2022-08-18T07:05:10.513Z,0
2022-08-18T07:06:10.615Z,0
2022-08-18T07:07:10.868Z,0
2022-08-18T07:08:11.268Z,0
2022-08-18T07:09:10.438Z,0
2022-08-18T07:10:10.831Z,0
2022-08-18T07:11:10.801Z,0
2022-08-18T07:12:11.091Z,0
2022-08-18T07:13:10.505Z,0
2022-08-18T07:15:11.179Z,0
2022-08-18T07:17:10.774Z,0
2022-08-18T07:18:10.980Z,0
2022-08-18T07:19:11.093Z,0
2022-08-18T07:20:29.732Z,0
2022-08-18T07:21:10.974Z,0
2022-08-18T07:22:11.185Z,0
2022-08-18T07:23:11.749Z,0
2022-08-18T07:24:27.498Z,0
2022-08-18T07:25:10.859Z,0
2022-08-18T07:26:11.173Z,0
2022-08-18T07:27:10.802Z,0
2022-08-18T07:28:11.158Z,0
2022-08-18T07:29:10.524Z,0
2022-08-18T07:30:15.477Z,0
2022-08-18T07:31:20.875Z,0
2022-08-18T07:32:20.977Z,0
2022-08-18T07:33:10.885Z,0
2022-08-18T07:34:10.943Z,0
2022-08-18T07:35:11.044Z,0
2022-08-18T07:36:10.580Z,0
2022-08-18T07:37:10.697Z,0
2022-08-18T07:38:43.859Z,0
2022-08-18T07:39:10.591Z,0
2022-08-18T07:40:11.462Z,0
2022-08-18T07:41:10.770Z,0
2022-08-18T07:42:10.835Z,0
2022-08-18T07:43:11.175Z,0
2022-08-18T07:44:17.157Z,0
2022-08-18T07:45:10.907Z,0
2022-08-18T07:46:11.159Z,0
2022-08-18T07:47:10.680Z,0
2022-08-18T07:48:40.739Z,0
2022-08-18T07:49:12.635Z,0
2022-08-18T07:50:57.983Z,0
2022-08-18T07:51:12.562Z,0
2022-08-18T07:52:48.131Z,0
2022-08-18T07:53:10.824Z,0
2022-08-18T07:54:20.270Z,0
2022-08-18T07:55:13.464Z,0
2022-08-18T07:56:10.781Z,0
2022-08-18T07:57:12.588Z,0
2022-08-18T07:58:10.685Z,0
2022-08-18T07:59:10.754Z,0
2022-08-18T08:00:41.510Z,0
2022-08-18T08:01:10.443Z,0
2022-08-18T08:02:10.944Z,0
2022-08-18T08:03:10.407Z,0
2022-08-18T08:04:26.132Z,0
2022-08-18T08:05:10.830Z,0
2022-08-18T08:06:11.366Z,0
2022-08-18T08:07:28.101Z,0
2022-08-18T08:08:11.264Z,0
2022-08-18T08:09:10.782Z,0
2022-08-18T08:10:11.053Z,0
2022-08-18T08:11:10.419Z,0
2022-08-18T08:12:10.772Z,0
2022-08-18T08:13:13.421Z,0
2022-08-18T08:14:10.791Z,0
2022-08-18T08:15:11.708Z,0
2022-08-18T08:16:10.897Z,0
2022-08-18T08:17:12.080Z,0
2022-08-18T08:18:10.552Z,0
2022-08-18T08:19:16.155Z,0
2022-08-18T08:20:10.723Z,0
2022-08-18T08:21:10.993Z,0
2022-08-18T08:22:10.579Z,0
2022-08-18T08:23:11.116Z,0
2022-08-18T08:24:10.793Z,0
2022-08-18T08:25:47.171Z,0
2022-08-18T08:26:12.264Z,0
2022-08-18T08:27:10.709Z,0
2022-08-18T08:28:10.851Z,0
2022-08-18T08:29:11.700Z,0
2022-08-18T08:30:11.750Z,0
2022-08-18T08:31:39.828Z,0
2022-08-18T08:32:11.234Z,0
2022-08-18T08:33:10.602Z,0
2022-08-18T08:34:10.687Z,0
2022-08-18T08:35:49.199Z,0
2022-08-18T08:36:10.766Z,0
2022-08-18T08:37:10.814Z,0
2022-08-18T08:38:44.611Z,0
2022-08-18T08:39:10.601Z,0
2022-08-18T08:40:11.716Z,0
2022-08-18T08:41:11.007Z,0
2022-08-18T08:42:40.229Z,0
2022-08-18T08:43:11.086Z,0
2022-08-18T08:44:10.742Z,0
2022-08-18T08:45:11.667Z,0
2022-08-18T08:46:10.555Z,0
2022-08-18T08:47:10.744Z,0
2022-08-18T08:48:14.579Z,0
2022-08-18T08:49:10.801Z,0
2022-08-18T08:50:11.006Z,0
2022-08-18T08:51:11.203Z,0
2022-08-18T08:52:10.736Z,0
2022-08-18T08:53:10.945Z,0
2022-08-18T08:54:11.093Z,0
2022-08-18T08:55:10.268Z,0
2022-08-18T08:56:10.598Z,0
2022-08-18T08:57:13.376Z,0
2022-08-18T08:58:10.708Z,0
2022-08-18T08:59:10.912Z,0
2022-08-18T09:00:12.759Z,0
2022-08-18T09:01:11.283Z,0
2022-08-18T09:02:15.948Z,0
2022-08-18T09:03:11.163Z,0
2022-08-18T09:04:10.742Z,0
2022-08-18T09:05:13.216Z,0
2022-08-18T09:06:10.713Z,0
2022-08-18T09:07:11.041Z,0
2022-08-18T09:08:10.454Z,0
2022-08-18T09:09:10.777Z,0
2022-08-18T09:10:10.971Z,0
2022-08-18T09:11:11.128Z,0
2022-08-18T09:12:10.377Z,0
2022-08-18T09:13:10.821Z,0
2022-08-18T09:14:10.901Z,0
2022-08-18T09:15:11.531Z,0
2022-08-18T09:16:17.679Z,0
2022-08-18T09:17:11.033Z,0
2022-08-18T09:18:10.722Z,0
2022-08-18T09:19:10.803Z,0
2022-08-18T09:20:11.266Z,0
2022-08-18T09:21:10.624Z,0
2022-08-18T09:22:10.800Z,0
2022-08-18T09:23:11.123Z,0
2022-08-18T09:24:10.459Z,0
2022-08-18T09:25:10.921Z,0
2022-08-18T09:26:11.379Z,0
2022-08-18T09:27:24.919Z,0
2022-08-18T09:28:14.875Z,0
2022-08-18T09:29:19.070Z,0
2022-08-18T09:30:12.054Z,0
2022-08-18T09:31:12.579Z,0
2022-08-18T09:32:15.577Z,0
2022-08-18T09:34:14.568Z,0
2022-08-18T09:35:10.881Z,0
2022-08-18T09:36:15.238Z,0
2022-08-18T09:37:10.994Z,0
2022-08-18T09:38:11.932Z,0
2022-08-18T09:39:12.164Z,0
2022-08-18T09:40:16.057Z,0
2022-08-18T09:41:10.639Z,0
2022-08-18T09:42:11.139Z,0
2022-08-18T09:43:12.868Z,0
2022-08-18T09:44:21.569Z,0
2022-08-18T09:45:11.168Z,0
2022-08-18T09:46:12.397Z,0
2022-08-18T09:47:11.085Z,0
2022-08-18T09:48:20.702Z,0
2022-08-18T09:49:11.912Z,0
2022-08-18T09:51:12.349Z,0
2022-08-18T09:52:12.830Z,0
2022-08-18T09:53:10.814Z,0
2022-08-18T09:54:10.886Z,0
2022-08-18T09:55:11.053Z,0
2022-08-18T09:56:10.459Z,0
2022-08-18T09:57:10.955Z,0
2022-08-18T09:58:11.142Z,0
2022-08-18T09:59:14.608Z,0
2022-08-18T10:00:13.089Z,0
2022-08-18T10:01:10.434Z,0
2022-08-18T10:02:28.356Z,0
2022-08-18T10:03:12.049Z,0
2022-08-18T10:04:15.462Z,0
2022-08-18T10:05:11.463Z,0
2022-08-18T10:07:10.656Z,0
2022-08-18T10:08:11.065Z,0
2022-08-18T10:11:08.971Z,0
2022-08-18T10:11:13.834Z,0
2022-08-18T10:13:10.586Z,0
2022-08-18T10:14:13.043Z,0
2022-08-18T10:15:11.244Z,0
2022-08-18T10:16:14.894Z,0
2022-08-18T10:17:27.959Z,0
2022-08-18T10:18:13.008Z,0
2022-08-18T10:19:11.023Z,0
2022-08-18T10:20:25.854Z,0
2022-08-18T10:21:12.164Z,0
2022-08-18T10:22:10.944Z,0
2022-08-18T10:23:11.236Z,0
2022-08-18T10:25:26.916Z,0
2022-08-18T10:27:10.531Z,0
2022-08-18T10:28:12.696Z,0
2022-08-18T10:29:10.777Z,0
2022-08-18T10:30:15.838Z,0
2022-08-18T10:31:14.058Z,0
2022-08-18T10:32:17.890Z,0
2022-08-18T10:33:21.982Z,0
2022-08-18T10:35:11.178Z,0
2022-08-18T10:36:14.648Z,0
2022-08-18T10:37:12.365Z,0
2022-08-18T10:38:10.625Z,0
2022-08-18T10:39:11.032Z,0
2022-08-18T10:40:13.277Z,0
2022-08-18T10:41:19.117Z,0
2022-08-18T10:43:55.090Z,0
2022-08-18T10:44:31.290Z,0
2022-08-18T10:45:13.114Z,0
2022-08-18T10:46:32.878Z,0
2022-08-18T10:47:16.047Z,0
2022-08-18T10:49:12.397Z,0
2022-08-18T10:50:11.102Z,0
2022-08-18T10:51:10.675Z,0
2022-08-18T10:52:10.913Z,0
2022-08-18T10:54:12.184Z,0
2022-08-18T10:56:11.040Z,0
2022-08-18T10:57:14.387Z,0
2022-08-18T10:58:10.875Z,0
2022-08-18T10:59:19.617Z,0
2022-08-18T11:00:13.806Z,0
2022-08-18T11:01:10.618Z,0
2022-08-18T11:02:11.781Z,0
2022-08-18T11:03:55.873Z,0
2022-08-18T11:04:34.074Z,0
2022-08-18T11:05:12.877Z,0
2022-08-18T11:07:12.130Z,0
2022-08-18T11:09:12.902Z,0
2022-08-18T11:10:50.533Z,0
2022-08-18T11:11:52.647Z,0
2022-08-18T11:12:12.473Z,0
2022-08-18T11:13:13.485Z,0
2022-08-18T11:14:12.715Z,0
2022-08-18T11:15:27.377Z,0
2022-08-18T11:17:11.143Z,0
2022-08-18T11:18:14.529Z,0
2022-08-18T11:19:11.255Z,0
2022-08-18T11:20:10.973Z,0
2022-08-18T11:21:17.202Z,0
2022-08-18T11:23:11.613Z,0
2022-08-18T11:24:13.924Z,0
2022-08-18T11:25:15.172Z,0
2022-08-18T11:26:12.854Z,0
2022-08-18T11:27:19.240Z,0
2022-08-18T11:28:11.552Z,0
2022-08-18T11:29:10.886Z,0
2022-08-18T11:30:15.673Z,0
2022-08-18T11:31:11.635Z,0
2022-08-18T11:32:15.398Z,0
2022-08-18T11:33:10.452Z,0
2022-08-18T11:34:12.761Z,0
2022-08-18T11:35:11.274Z,0
2022-08-18T11:36:11.199Z,0
2022-08-18T11:37:13.049Z,0
2022-08-18T11:38:20.673Z,0
2022-08-18T11:39:11.567Z,0
2022-08-18T11:40:22.547Z,0
2022-08-18T11:41:15.188Z,0
2022-08-18T11:43:11.238Z,0
2022-08-18T11:44:11.467Z,0
2022-08-18T11:45:11.654Z,0
2022-08-18T11:46:16.436Z,0
2022-08-18T11:47:12.761Z,0
2022-08-18T11:48:37.849Z,0
2022-08-18T11:49:13.101Z,0
2022-08-18T11:50:10.733Z,0
2022-08-18T11:51:13.621Z,0
2022-08-18T11:52:10.831Z,0
2022-08-18T11:53:11.395Z,0
2022-08-18T11:54:10.663Z,0
2022-08-18T11:57:13.874Z,0
2022-08-18T11:58:16.317Z,0
2022-08-18T11:59:11.658Z,0
2022-08-18T12:00:27.765Z,0
2022-08-18T12:01:11.759Z,0
2022-08-18T12:02:11.021Z,0
2022-08-18T12:03:10.647Z,0
2022-08-18T12:04:29.492Z,0
2022-08-18T12:07:11.434Z,0
2022-08-18T12:09:10.909Z,0
2022-08-18T12:11:30.872Z,0
2022-08-18T12:12:11.144Z,0
2022-08-18T12:13:12.996Z,0
2022-08-18T12:14:37.762Z,0
2022-08-18T12:15:26.098Z,0
2022-08-18T12:16:10.981Z,0
2022-08-18T12:17:10.450Z,0
2022-08-18T12:18:10.585Z,0
2022-08-18T12:19:15.647Z,0
2022-08-18T12:20:15.388Z,0
2022-08-18T12:21:10.620Z,0
2022-08-18T12:22:34.515Z,0
2022-08-18T12:24:39.518Z,0
2022-08-18T12:25:15.881Z,0
2022-08-18T12:26:39.083Z,0
2022-08-18T12:27:25.308Z,0
2022-08-18T12:28:14.866Z,0
2022-08-18T12:29:14.450Z,0
2022-08-18T12:31:20.634Z,0
2022-08-18T12:33:16.597Z,0
2022-08-18T12:34:17.926Z,0
2022-08-18T12:35:13.266Z,0
2022-08-18T12:36:10.667Z,0
2022-08-18T12:38:00.291Z,0
2022-08-18T12:38:17.880Z,0
2022-08-18T12:39:13.150Z,0
2022-08-18T12:40:12.393Z,0
2022-08-18T12:41:11.371Z,0
2022-08-18T12:42:13.734Z,0
2022-08-18T12:43:11.099Z,0
2022-08-18T12:44:18.339Z,0
2022-08-18T12:45:12.323Z,0
2022-08-18T12:46:15.261Z,0
2022-08-18T12:47:11.121Z,0
2022-08-18T12:48:10.763Z,0
2022-08-18T12:49:12.152Z,0
2022-08-18T12:50:11.428Z,0
2022-08-18T12:51:14.233Z,0
2022-08-18T12:52:15.641Z,0
2022-08-18T12:53:10.846Z,0
2022-08-18T12:54:14.004Z,0
2022-08-18T12:55:24.965Z,0
2022-08-18T12:56:14.077Z,0
2022-08-18T12:57:14.325Z,0
2022-08-18T12:58:10.529Z,0
2022-08-18T12:59:11.301Z,0
2022-08-18T13:00:15.356Z,0
2022-08-18T13:01:11.223Z,0
2022-08-18T13:02:12.635Z,0
2022-08-18T13:03:11.896Z,0
2022-08-18T13:04:18.579Z,0
2022-08-18T13:05:08.255Z,0
2022-08-18T13:05:08.476Z,0
2022-08-18T13:05:08.492Z,0
2022-08-18T13:05:08.544Z,0
2022-08-18T13:05:08.586Z,0
2022-08-18T13:05:08.626Z,0
2022-08-18T13:06:11.233Z,0
2022-08-18T13:07:10.684Z,0
2022-08-18T13:08:30.412Z,0
2022-08-18T13:09:35.627Z,0
2022-08-18T13:10:58.126Z,0
2022-08-18T13:11:23.714Z,0
2022-08-18T13:12:18.387Z,0
2022-08-18T13:13:12.588Z,0
2022-08-18T13:14:12.777Z,0
2022-08-18T13:15:14.204Z,0
2022-08-18T13:16:10.835Z,0
2022-08-18T13:17:34.308Z,0
2022-08-18T13:18:17.720Z,0
2022-08-18T13:19:14.299Z,0
2022-08-18T13:20:11.240Z,0
2022-08-18T13:21:13.561Z,0
2022-08-18T13:22:13.999Z,0
2022-08-18T13:23:12.160Z,0
2022-08-18T13:24:13.302Z,0
2022-08-18T13:25:11.009Z,0
2022-08-18T13:26:12.389Z,0
2022-08-18T13:27:26.373Z,0
2022-08-18T13:28:12.390Z,0
2022-08-18T13:29:14.184Z,0
2022-08-18T13:30:35.504Z,0
2022-08-18T13:31:11.213Z,0
2022-08-18T13:32:12.166Z,0
2022-08-18T13:33:58.203Z,0
2022-08-18T13:34:19.265Z,0
2022-08-18T13:35:16.982Z,0
2022-08-18T13:36:11.345Z,0
2022-08-18T13:37:11.124Z,0
2022-08-18T13:38:25.665Z,0
2022-08-18T13:39:12.225Z,0
2022-08-18T13:40:16.077Z,0
2022-08-18T13:41:15.504Z,0
2022-08-18T13:43:13.015Z,0
2022-08-18T13:44:18.880Z,0
2022-08-18T13:45:28.797Z,0
2022-08-18T13:46:13.463Z,0
2022-08-18T13:47:12.565Z,0
2022-08-18T13:48:12.407Z,0
2022-08-18T13:49:10.787Z,0
2022-08-18T13:50:15.401Z,0
2022-08-18T13:51:11.851Z,0
2022-08-18T13:52:34.683Z,0
2022-08-18T13:54:35.448Z,0
2022-08-18T13:55:16.890Z,0
2022-08-18T13:56:11.519Z,0
2022-08-18T13:57:11.338Z,0
2022-08-18T13:58:24.186Z,0
2022-08-18T13:59:10.808Z,0
2022-08-18T14:00:29.646Z,0
2022-08-18T14:01:55.572Z,0
2022-08-18T14:02:12.441Z,0
2022-08-18T14:03:11.390Z,0
2022-08-18T14:04:20.532Z,0
2022-08-18T14:05:10.831Z,0
2022-08-18T14:06:13.154Z,0
2022-08-18T14:07:18.841Z,0
2022-08-18T14:08:19.384Z,0
2022-08-18T14:09:27.756Z,0
2022-08-18T14:10:16.913Z,0
2022-08-18T14:11:10.852Z,0
2022-08-18T14:12:32.666Z,0
2022-08-18T14:13:28.556Z,0
2022-08-18T14:14:11.571Z,0
2022-08-18T14:15:12.072Z,0
2022-08-18T14:16:18.937Z,0
2022-08-18T14:17:11.055Z,0
2022-08-18T14:19:14.196Z,0
2022-08-18T14:20:21.655Z,0
2022-08-18T14:21:12.995Z,0
2022-08-18T14:22:15.230Z,0
2022-08-18T14:23:11.455Z,0
2022-08-18T14:24:17.948Z,0
2022-08-18T14:25:11.420Z,0
2022-08-18T14:26:10.999Z,0
2022-08-18T14:27:12.594Z,0
2022-08-18T14:28:15.579Z,0
2022-08-18T14:29:16.331Z,0
2022-08-18T14:30:13.760Z,0
2022-08-18T14:31:11.240Z,0
2022-08-18T14:32:17.826Z,0
2022-08-18T14:34:11.289Z,0
2022-08-18T14:36:10.123Z,0
2022-08-18T14:36:13.599Z,0
2022-08-18T14:37:15.655Z,0
2022-08-18T14:38:13.534Z,0
2022-08-18T14:39:11.880Z,0
2022-08-18T14:40:16.026Z,0
2022-08-18T14:41:10.789Z,0
2022-08-18T14:42:15.668Z,0
2022-08-18T14:43:14.249Z,0
2022-08-18T14:44:23.511Z,0
2022-08-18T14:45:35.181Z,0
2022-08-18T14:46:14.374Z,0
2022-08-18T14:47:11.287Z,0
2022-08-18T14:48:14.827Z,0
2022-08-18T14:49:10.944Z,0
2022-08-18T14:50:13.472Z,0
2022-08-18T14:51:13.252Z,0
2022-08-18T14:52:18.265Z,0
2022-08-18T14:53:10.605Z,0
2022-08-18T14:54:11.976Z,0
2022-08-18T14:55:11.110Z,0
2022-08-18T14:56:13.541Z,0
2022-08-18T14:57:12.925Z,0
2022-08-18T14:58:11.392Z,0
2022-08-18T14:59:11.359Z,0
2022-08-18T15:00:16.524Z,0
2022-08-18T15:01:14.245Z,0
2022-08-18T15:02:16.609Z,0
2022-08-18T15:03:11.472Z,0
2022-08-18T15:04:23.027Z,0
2022-08-18T15:05:27.825Z,0
2022-08-18T15:06:17.127Z,0
2022-08-18T15:07:18.239Z,0
2022-08-18T15:08:10.864Z,0
2022-08-18T15:09:11.880Z,0